Kezdőlap
METAR-TAF:

METAR-TAF

Repülőterek :

Grantley Adams nemzetközi repülőtér

Bridgetown, Barbados

földrajzi szélesség: 13-04N, földrajzi hosszúság: 059-29W, magasság: 50 m

Jelenlegi meteorológiai megfigyelések

A jelentés 50 perccel ezelõtt készült, 04:00 UTC
Északkeleti szél 14 kt
Hőmérséklet 28°C
Páratartalom 84%
Légköri nyomás 1013 hPa
Látótávolság 10 km, vagy több
Kevés felhő 1800 lábon
Szakadozott felhőzet 3600 lábon

METAR: TBPB 130400Z 04014KT 9999 FEW018 BKN036 28/25 Q1013 NOSIG

Idő: 00:50 (04:50 UTC)

Előrejelzés

A jelentés 5 órával és 50 perccel ezelõtt készült, 23:00 UTC
Az előrejelzés 13-én 00 óra UTC és 13-én 24 óra UTC között érvényes
Kelet-északkeleti szél 15 kt
Látótávolság 10 km, vagy több
Szórványos felhőzet 1800 lábon

TAF: TBPB 122300Z 1300/1324 07015KT 9999 SCT018

Meteorológiai megfigyelések és előrejelzések több, mint 4000 repülőtéren (METAR és TAF jelentéseket).

A térképen piros és sárga pontok jelzik az elérhető meteorológiai állomásokat.

Mozgassa az egeret a pont fölött, hogy megjelenjen az állomás neve.

Azután kattintson az időjárási megfigyelések és előrejelzések megtekintéséhez.

A térkép megváltoztatása: kattintson a fekete keresztel jelölt zöld gombra ráközelítéshez, a vonallal jelölt zöld gombra távolításhoz, vagy a zöld nyilakra a szomszédos térképek eléréséhez.


METAR-TAF: